INDIA METEOROLOGICAL DEPARTMENT, R.M.C. NEW DELHI
Dated:25 - 3 - 2017
METARS


Agartala   
VEAT 250130Z 00000KT 2500 TS FEW018 FEW030CB SCT100 20/19 Q1010 BECMG 3000 BR =
Ahmedabad  
VAAH 250130Z 35002KT 3500 FU NSC 24/13 Q1012 NOSIG=
Allahabad  
VEAB 250130Z VRB01KT 2000 HZ SKC 24/18 Q1010 NOSIG=
Amritsar   
VIAR 250130Z 00000KT 3000 BR SCT100 14/14 Q1011 NOSIG=
Aurangabad 
VAAU 250000Z 34003KT 5000 HZ NSC 27/14 Q1012 NOSIG=
Bangalore  
VOBL 250130Z 00000KT 6000 NSC 19/16 Q1018 NOSIG=
Baroda     
VABO 250100Z 02003KT 5000 FU NSC 24/12 Q1011 TEMPO 3000M=
Bhopal     
VABP 250130Z 06004KT 6000 NSC 21/08 Q1014 NOSIG=
Bhubaneswar
VEBS 250100Z 19002KT 1800 BR SCT020 26/24 Q1010 NOSIG=
Bhuntar    
VIBR 250130Z 00000KT 8000 FEW040 09/06 Q1018=
Chennai    
VOMM 250130Z 23002KT 3500 BR NSC 24/21 Q1012 NOSIG=
Coimbatore 
VOCB 250130Z 00000KT 2000 BR NSC 23/21 Q1014 NOSIG=
Colombo    
VCBI 250140Z 09004KT 9999 FEW017 26/22 Q1011 NOSIG=
Delhi      
VIDP 250130Z 23002KT 2200 BR NSC 17/14 Q1011 NOSIG=
Dehradun   
VIDN 250130Z 01003KT 6000 FEW080 17/11 Q1011 =
Gauhati    
VEGT 250130Z 35003KT 2000 BR SCT018 BKN100 23/21 Q1011 NOSIG=
Gaya       
VEGY 250130Z NIL=
Goa        
VOGO 250030Z 00000KT 5000 BR SCT020 24/21 Q1010 TEMPO 4000 BR =
Hyderabad  
VOHS 250130Z VRB03KT 5000 HZ FEW020 26/15 Q1015 NOSIG=
Imphal     
VEIM 250130Z 13002KT 1500 BR FEW020 15/13 Q1016 NOSIG=
Indore     
VAID 250100Z 30006KT 6000 NSC 21/10 Q1014 NOSIG=
Jabalpur   
VAJB 250100Z 00000KT 5000 HZ NSC 23/10 Q1013=
Jaipur     
VIJP 250130Z 00000KT 3000 HZ NSC 24/06 Q1013 NOSIG=
Khajuraho  
VEKO 250100Z 27004KT 5000 HZ NSC 20/13 Q1011=
Kochi      
VOCI 250130Z 03002KT 2000 BR SCT015 FEW025TCU SCT080 26/24 Q1011 TEMPO 3000 BR=
Kolkata    
VECC 250130Z 21005KT 3000 HZ FEW020 28/24 Q1009 NOSIG=
Kozhikode  
VOCL 250130Z 00000KT 3000 BR FEW015 26/24 Q1011 BECMG 5000 BR=
Lucknow    
VILK 250130Z VRB02KT 2000 HZ NSC 20/16 Q1009 NOSIG=
Madurai    
VOMD 250130Z 00000KT 4000 HZ FEW020 25/20 Q1013 NOSIG=
Mumbai     
VABB 250130Z 04004KT 3500 HZ NSC 27/20 Q1011 NOSIG=
Nagpur     
VANP 250130Z 00000KT 3000 HZ NSC 25/08 Q1012 NOSIG=
Patna      
VEPT 250130Z NIL=
Raipur     
VERP 250130Z 00000KT 4000 HZ FEW100 26/13 Q1011 NOSIG=
Safdarjung 
VIDD 250130Z 27002KT 3000 BR NSC 18/14 Q1011 NOSIG=
Surat     
VASU 250100Z 00000KT 3000 BR NSC 23/21 Q1011=
Ranchi     
VERC 250130Z 00000KT 4000 HZ FEW100 23/14 Q1013 NOSIG=
Trichy     
VOTR 250130Z 00000KT 3000 BR FEW016 23/19 Q1011 NOSIG=
Trivandrum 
VOTV 250130Z 00000KT 3000 HZ SCT018 SCT080 27/23 Q1011 NOSIG=
Udaipur    
VAUD 250130Z 00000KT 5000 HZ NSC 19/12 Q1013 NOSIG=
Varanasi   
VEBN 250130Z VRB02KT 1100 R27/1400 BR NSC 22/19 Q1009=
Vizag      
VOVZ 250100Z 00000KT 5000 BR NSC 25/23 Q1011 NOSIG =
Male       
VRMM 250100Z 00000KT 9999 FEW020 SCT280 27/24 Q1011 NOSIG=
Gan        
VRMG 250100Z 00000KT 9999 SCT017 FEW018CB 27/25 Q1011 CB NE,SE=
Kathmandu  
VNKT 250150Z VRB02KT 2000 BR FEW015 SCT100 13/12 Q1017 NOSIG=
Dhaka      
VGHS 250130Z 17005KT 3200 HZ SCT012 BKN100 25/22 Q1010 NOSIG=
Colombo    
VCBI 250140Z 09004KT 9999 FEW017 26/22 Q1011 NOSIG=
Karachi    
OPKC 250130Z NIL=
Lahore     
OPLA 250125Z 00000KT 4000 FU FEW100 SCT200 18/15 Q1011 A29.86=
Leh        
VILH 250130Z VRB02KT 6000 FEW100 SCT150 -03/-11 Q1030 NOSIG=
Thoise     
VITX 250130Z CALM 6000 CLOUDY FEW070 BKN150 M01/M11 Q1033 NOSIG RMK AC=
Sri Nagar  
VISR 250130Z VRB02KT 6000 SCT100 BKN200 07/03 Q1023 NOSIG=
Jammu      
VIJU 250130Z VRB02KT 6000 FEW090 SCT250 18/14 Q1011 NOSIG=
Jodhpur    
VIJO 250130Z VRB01 6000 FEW250 22/13 Q1012 NOSIG=
Bhuj-Rudra 
VABJ 250130Z VRB01KT 6000 FEW250 20/18 Q1013 NOSIG=
Gorakhpur  
VEGK 250030Z 11003KT 1000 BR SKC 21/21 Q1008 BECMG 0800=
Agra       
VIAG 250030Z VRB02KT 5000 BR FEW250 17/16 Q1011 NOSIG=
Bagdogra   
VEBD 250130Z 07002KT 6000 SCT025 BKN090 20/19 Q1010 TEMPO -RA=
Gwalior    
VIGR 250030Z VRB02KT 6000 FEW250 19/13 Q1011 NOSIG=
Pune       
VAPO 250130Z VRB01KT 6000 SCT100 24/14 Q1016 NOSIG=
Chandigarh 
VICG 250030Z VRB02KT 5000 HZ FEW250 19/13 Q1010 NOSIG=
Jamnagar   
VAJM 250130Z VRB02KT 3000 BR FEW100 20/20 Q1011 TEMPO 2000M=